createdAt,value
2018-04-13T00:01:03.382Z,62.60
2018-04-13T00:03:29.765Z,62.30
2018-04-13T00:05:56.203Z,62.90
2018-04-13T00:08:23.500Z,64.40
2018-04-13T00:10:50.665Z,65.30
2018-04-13T00:13:17.857Z,65.40
2018-04-13T00:15:44.280Z,64.60
2018-04-13T00:18:11.516Z,64.70
2018-04-13T00:20:38.001Z,64.70
2018-04-13T00:23:04.604Z,64.70
2018-04-13T00:25:30.991Z,64.70
2018-04-13T00:27:58.137Z,64.70
2018-04-13T00:30:25.288Z,64.60
2018-04-13T00:32:52.444Z,64.80
2018-04-13T00:35:19.565Z,64.60
2018-04-13T00:37:46.022Z,64.60
2018-04-13T00:40:13.181Z,64.80
2018-04-13T00:42:40.339Z,64.80
2018-04-13T00:45:06.788Z,64.80
2018-04-13T00:47:33.223Z,64.70
2018-04-13T00:49:59.688Z,64.70
2018-04-13T00:52:26.088Z,65.20
2018-04-13T00:54:52.507Z,65.80
2018-04-13T00:57:18.923Z,66.30
2018-04-13T00:59:45.348Z,66.40
2018-04-13T01:02:11.840Z,66.70
2018-04-13T01:04:38.354Z,67.10
2018-04-13T01:07:04.724Z,66.90
2018-04-13T01:09:31.879Z,66.60
2018-04-13T01:11:59.025Z,66.20
2018-04-13T01:14:25.431Z,66.20
2018-04-13T01:16:51.830Z,65.90
2018-04-13T01:19:18.263Z,66.90
2018-04-13T01:21:44.643Z,67.40
2018-04-13T01:24:11.027Z,67.40
2018-04-13T01:26:39.197Z,67.20
2018-04-13T01:29:05.547Z,67.40
2018-04-13T01:31:32.010Z,67.00
2018-04-13T01:33:59.133Z,67.40
2018-04-13T01:36:25.506Z,67.40
2018-04-13T01:38:51.924Z,67.40
2018-04-13T01:41:18.313Z,67.30
2018-04-13T01:43:44.702Z,66.50
2018-04-13T01:46:11.131Z,66.20
2018-04-13T01:48:37.532Z,66.40
2018-04-13T01:51:04.657Z,67.30
2018-04-13T01:53:31.056Z,67.20
2018-04-13T01:55:57.456Z,67.20
2018-04-13T01:58:23.902Z,67.50
2018-04-13T02:00:50.305Z,67.40
2018-04-13T02:03:16.731Z,67.20
2018-04-13T02:05:43.190Z,67.00
2018-04-13T02:08:09.571Z,67.90
2018-04-13T02:10:36.071Z,68.40
2018-04-13T02:13:02.508Z,67.90
2018-04-13T02:15:28.904Z,67.50
2018-04-13T02:17:55.345Z,67.90
2018-04-13T02:20:22.501Z,68.70
2018-04-13T02:22:48.914Z,68.60
2018-04-13T02:25:15.285Z,68.80
2018-04-13T02:27:43.432Z,69.00
2018-04-13T02:30:10.577Z,68.80
2018-04-13T02:32:37.699Z,68.50
2018-04-13T02:35:04.085Z,68.50
2018-04-13T02:37:30.511Z,67.70
2018-04-13T02:39:56.938Z,67.50
2018-04-13T02:42:23.349Z,67.20
2018-04-13T02:44:51.303Z,67.50
2018-04-13T02:47:18.489Z,68.80
2018-04-13T02:49:44.919Z,68.70
2018-04-13T02:52:11.334Z,68.80
2018-04-13T02:54:37.777Z,68.90
2018-04-13T02:57:04.159Z,68.90
2018-04-13T02:59:30.562Z,69.30
2018-04-13T03:01:56.930Z,69.00
2018-04-13T03:04:23.324Z,69.90
2018-04-13T03:06:49.717Z,69.90
2018-04-13T03:09:16.863Z,69.30
2018-04-13T03:11:43.861Z,68.80
2018-04-13T03:14:10.261Z,68.80
2018-04-13T03:16:36.734Z,68.10
2018-04-13T03:19:03.134Z,68.30
2018-04-13T03:21:29.563Z,68.20
2018-04-13T03:23:55.944Z,68.70
2018-04-13T03:26:22.344Z,69.20
2018-04-13T03:28:48.785Z,69.40
2018-04-13T03:31:15.228Z,69.70
2018-04-13T03:33:41.687Z,69.60
2018-04-13T03:36:08.086Z,69.00
2018-04-13T03:38:34.452Z,68.90
2018-04-13T03:41:00.822Z,69.20
2018-04-13T03:43:27.220Z,69.20
2018-04-13T03:45:54.343Z,69.50
2018-04-13T03:48:20.756Z,69.50
2018-04-13T03:50:47.985Z,69.60
2018-04-13T03:53:14.355Z,69.60
2018-04-13T03:55:40.963Z,69.90
2018-04-13T03:58:07.436Z,70.10
2018-04-13T04:00:34.037Z,69.80
2018-04-13T04:03:00.442Z,69.20
2018-04-13T04:05:26.886Z,68.80
2018-04-13T04:07:53.216Z,68.70
2018-04-13T04:10:19.611Z,69.20
2018-04-13T04:12:46.008Z,69.80
2018-04-13T04:15:12.421Z,69.80
2018-04-13T04:17:38.831Z,70.00
2018-04-13T04:20:23.509Z,70.90
2018-04-13T04:23:08.425Z,71.60
2018-04-13T04:26:03.864Z,72.20
2018-04-13T04:28:30.368Z,72.70
2018-04-13T04:30:56.807Z,72.50
2018-04-13T04:33:23.224Z,72.10
2018-04-13T04:35:49.591Z,71.90
2018-04-13T04:38:16.047Z,72.30
2018-04-13T04:40:42.426Z,72.20
2018-04-13T04:43:08.878Z,71.40
2018-04-13T04:45:35.365Z,71.00
2018-04-13T04:48:01.803Z,70.90
2018-04-13T04:50:28.920Z,71.10
2018-04-13T04:52:55.317Z,71.10
2018-04-13T04:55:22.606Z,71.50
2018-04-13T04:57:48.960Z,71.30
2018-04-13T05:00:15.342Z,70.70
2018-04-13T05:02:41.749Z,70.90
2018-04-13T05:05:08.232Z,71.60
2018-04-13T05:07:35.379Z,71.10
2018-04-13T05:10:02.696Z,71.10
2018-04-13T05:12:29.170Z,71.20
2018-04-13T05:14:55.596Z,71.00
2018-04-13T05:17:22.021Z,71.30
2018-04-13T05:19:55.279Z,71.60
2018-04-13T05:22:21.730Z,71.70
2018-04-13T05:24:48.200Z,71.30
2018-04-13T05:27:14.660Z,71.10
2018-04-13T05:29:41.077Z,71.00
2018-04-13T05:32:08.238Z,71.80
2018-04-13T05:34:34.592Z,71.00
2018-04-13T05:37:01.816Z,71.50
2018-04-13T05:39:28.342Z,71.50
2018-04-13T05:41:54.836Z,71.70
2018-04-13T05:44:21.345Z,71.90
2018-04-13T05:46:47.815Z,71.60
2018-04-13T05:49:14.332Z,71.60
2018-04-13T05:51:40.840Z,70.90
2018-04-13T05:54:08.091Z,70.60
2018-04-13T05:56:34.584Z,70.60
2018-04-13T05:59:01.019Z,70.70
2018-04-13T06:01:27.485Z,70.60
2018-04-13T06:03:54.176Z,70.20
2018-04-13T06:06:20.616Z,70.00
2018-04-13T06:08:47.863Z,70.60
2018-04-13T06:11:14.515Z,70.40
2018-04-13T06:13:41.180Z,70.30
2018-04-13T06:16:07.581Z,70.10
2018-04-13T06:18:34.195Z,69.80
2018-04-13T06:21:00.715Z,69.50
2018-04-13T06:23:27.260Z,69.50
2018-04-13T06:25:54.075Z,69.00
2018-04-13T06:28:20.563Z,68.60
2018-04-13T06:30:47.778Z,68.60
2018-04-13T06:33:14.254Z,68.20
2018-04-13T06:35:40.730Z,68.40
2018-04-13T06:38:07.184Z,68.30
2018-04-13T06:40:34.383Z,67.30
2018-04-13T06:43:00.860Z,67.30
2018-04-13T06:45:27.407Z,67.10
2018-04-13T06:47:53.849Z,66.80
2018-04-13T06:50:20.277Z,67.70
2018-04-13T06:52:47.512Z,67.40
2018-04-13T06:55:13.904Z,67.30
2018-04-13T06:57:40.399Z,66.30
2018-04-13T07:00:07.014Z,66.40
2018-04-13T07:02:33.599Z,66.20
2018-04-13T07:05:00.029Z,65.70
2018-04-13T07:07:26.504Z,65.70
2018-04-13T07:09:52.985Z,64.60
2018-04-13T07:12:19.473Z,64.70
2018-04-13T07:14:46.069Z,64.10
2018-04-13T07:17:12.499Z,64.50
2018-04-13T07:19:38.915Z,65.00
2018-04-13T07:22:05.314Z,64.80
2018-04-13T07:24:31.800Z,64.20
2018-04-13T07:26:58.264Z,63.60
2018-04-13T07:29:24.754Z,62.50
2018-04-13T07:31:51.222Z,63.70
2018-04-13T07:34:17.619Z,63.60
2018-04-13T07:36:44.119Z,63.40
2018-04-13T07:39:11.638Z,62.00
2018-04-13T07:41:38.006Z,61.90
2018-04-13T07:44:04.538Z,62.10
2018-04-13T07:46:31.097Z,62.10
2018-04-13T07:48:57.505Z,61.50
2018-04-13T07:51:24.059Z,61.20
2018-04-13T07:53:50.592Z,60.70
2018-04-13T07:56:16.981Z,60.80
2018-04-13T07:58:43.619Z,61.30
2018-04-13T08:01:10.131Z,61.30
2018-04-13T08:03:37.569Z,60.70
2018-04-13T08:06:04.051Z,60.60
2018-04-13T08:08:30.585Z,61.00
2018-04-13T08:10:57.079Z,61.10
2018-04-13T08:13:23.504Z,60.50
2018-04-13T08:15:50.056Z,61.30
2018-04-13T08:18:16.476Z,61.30
2018-04-13T08:20:42.910Z,61.10
2018-04-13T08:23:09.343Z,60.90
2018-04-13T08:25:35.781Z,60.70
2018-04-13T08:28:02.206Z,59.90
2018-04-13T08:30:28.677Z,59.80
2018-04-13T08:32:55.171Z,60.00
2018-04-13T08:35:21.710Z,60.30
2018-04-13T08:37:48.225Z,59.60
2018-04-13T08:40:14.612Z,60.10
2018-04-13T08:42:41.810Z,59.60
2018-04-13T08:45:08.312Z,59.60
2018-04-13T08:47:34.752Z,58.90
2018-04-13T08:50:01.216Z,58.80
2018-04-13T08:52:27.810Z,58.90
2018-04-13T08:54:54.349Z,58.30
2018-04-13T08:57:21.573Z,58.00
2018-04-13T08:59:48.013Z,58.10
2018-04-13T09:02:14.533Z,57.70
2018-04-13T09:04:41.186Z,56.40
2018-04-13T09:07:08.340Z,58.10
2018-04-13T09:09:34.817Z,58.00
2018-04-13T09:12:01.409Z,58.40
2018-04-13T09:14:44.605Z,57.20
2018-04-13T09:17:11.145Z,58.30
2018-04-13T09:19:37.591Z,56.20
2018-04-13T09:22:04.310Z,55.60
2018-04-13T09:24:30.908Z,55.90
2018-04-13T09:26:57.397Z,53.30
2018-04-13T09:29:24.582Z,51.60
2018-04-13T09:31:51.214Z,51.20
2018-04-13T09:34:17.785Z,51.80
2018-04-13T09:36:44.321Z,51.20
2018-04-13T09:39:11.782Z,50.80
2018-04-13T09:41:38.315Z,48.60
2018-04-13T09:44:04.740Z,49.10
2018-04-13T09:46:31.246Z,48.20
2018-04-13T09:48:57.704Z,47.30
2018-04-13T09:51:24.140Z,48.00
2018-04-13T09:53:51.384Z,46.20
2018-04-13T09:56:17.993Z,46.30
2018-04-13T09:58:44.450Z,48.20
2018-04-13T10:01:11.916Z,50.90
2018-04-13T10:03:44.292Z,54.10
2018-04-13T10:06:10.801Z,56.70
2018-04-13T10:08:37.243Z,58.50
2018-04-13T10:11:03.638Z,58.80
2018-04-13T10:13:30.301Z,59.00
2018-04-13T10:15:56.880Z,60.30
2018-04-13T10:18:24.099Z,58.00
2018-04-13T10:20:50.547Z,57.90
2018-04-13T10:23:17.064Z,56.80
2018-04-13T10:25:43.511Z,57.30
2018-04-13T10:28:09.932Z,58.00
2018-04-13T10:30:36.381Z,58.80
2018-04-13T10:33:02.817Z,60.90
2018-04-13T10:35:29.260Z,63.80
2018-04-13T10:37:56.493Z,71.70
2018-04-13T10:40:22.921Z,71.70
2018-04-13T10:42:49.428Z,73.20
2018-04-13T10:45:15.939Z,74.80
2018-04-13T10:47:42.424Z,79.80
2018-04-13T10:50:08.851Z,82.20
2018-04-13T10:52:35.404Z,84.50
2018-04-13T10:55:01.866Z,89.40
2018-04-13T10:57:28.347Z,90.10
2018-04-13T10:59:54.774Z,88.50
2018-04-13T11:02:21.224Z,90.00
2018-04-13T11:04:47.629Z,90.60
2018-04-13T11:07:14.134Z,91.00
2018-04-13T11:09:40.631Z,89.30
2018-04-13T11:12:07.098Z,91.90
2018-04-13T11:14:33.615Z,92.60
2018-04-13T11:17:00.028Z,92.20
2018-04-13T11:19:27.251Z,93.10
2018-04-13T11:21:53.666Z,93.10
2018-04-13T11:24:20.085Z,94.40
2018-04-13T11:26:46.576Z,92.10
2018-04-13T11:29:13.046Z,91.10
2018-04-13T11:31:40.349Z,93.70
2018-04-13T11:34:06.824Z,93.90
2018-04-13T11:36:33.282Z,92.00
2018-04-13T11:38:59.793Z,87.80
2018-04-13T11:41:26.240Z,84.50
2018-04-13T11:43:52.684Z,87.10
2018-04-13T11:46:19.407Z,92.00
2018-04-13T11:48:45.963Z,85.50
2018-04-13T11:51:12.558Z,83.20
2018-04-13T11:53:39.034Z,83.20
2018-04-13T11:56:05.720Z,83.00
2018-04-13T11:58:33.095Z,80.10
2018-04-13T12:00:59.585Z,80.20
2018-04-13T12:03:26.753Z,84.10
2018-04-13T12:05:53.343Z,84.10
2018-04-13T12:08:19.832Z,83.00
2018-04-13T12:10:47.068Z,85.30
2018-04-13T12:13:13.622Z,85.10
2018-04-13T12:15:40.121Z,88.70
2018-04-13T12:18:06.613Z,88.20
2018-04-13T12:20:33.248Z,88.70
2018-04-13T12:22:59.752Z,81.00
2018-04-13T12:25:33.324Z,80.20
2018-04-13T12:27:59.793Z,83.00
2018-04-13T12:30:26.257Z,83.10
2018-04-13T12:32:53.562Z,85.40
2018-04-13T12:35:20.073Z,85.40
2018-04-13T12:37:46.506Z,82.50
2018-04-13T12:40:13.026Z,83.80
2018-04-13T12:42:39.511Z,83.20
2018-04-13T12:45:05.957Z,84.60
2018-04-13T12:47:32.595Z,85.90
2018-04-13T12:49:59.112Z,87.90
2018-04-13T12:52:26.327Z,85.70
2018-04-13T12:54:53.062Z,85.70
2018-04-13T12:57:19.328Z,87.20
2018-04-13T12:59:52.762Z,83.20
2018-04-13T13:02:19.580Z,90.70
2018-04-13T13:04:46.037Z,85.70
2018-04-13T13:07:12.589Z,84.50
2018-04-13T13:09:39.072Z,85.10
2018-04-13T13:12:05.567Z,85.40
2018-04-13T13:14:32.065Z,87.10
2018-04-13T13:16:58.588Z,83.20
2018-04-13T13:19:25.162Z,85.60
2018-04-13T13:21:51.875Z,84.90
2018-04-13T13:24:18.310Z,89.10
2018-04-13T13:26:44.891Z,87.20
2018-04-13T13:29:11.445Z,87.00
2018-04-13T13:31:38.030Z,88.20
2018-04-13T13:34:04.565Z,86.70
2018-04-13T13:36:30.945Z,87.40
2018-04-13T13:38:57.458Z,86.80
2018-04-13T13:41:23.923Z,86.80
2018-04-13T13:43:50.731Z,86.10
2018-04-13T13:46:17.914Z,86.80
2018-04-13T13:48:44.341Z,86.90
2018-04-13T13:51:10.771Z,89.70
2018-04-13T13:53:37.241Z,84.30
2018-04-13T13:56:03.693Z,86.90
2018-04-13T13:58:30.171Z,86.40
2018-04-13T14:00:56.581Z,86.90
2018-04-13T14:03:23.013Z,87.10
2018-04-13T14:05:49.575Z,88.40
2018-04-13T14:08:16.008Z,89.20
2018-04-13T14:10:42.471Z,89.00
2018-04-13T14:13:08.921Z,89.30
2018-04-13T14:15:35.422Z,85.50
2018-04-13T14:18:01.844Z,83.20
2018-04-13T14:20:28.300Z,82.30
2018-04-13T14:22:54.707Z,81.00
2018-04-13T14:25:21.140Z,82.50
2018-04-13T14:27:47.559Z,81.10
2018-04-13T14:30:14.070Z,80.00
2018-04-13T14:32:40.428Z,78.40
2018-04-13T14:35:06.867Z,78.40
2018-04-13T14:37:33.300Z,77.70
2018-04-13T14:39:59.832Z,78.50
2018-04-13T14:42:26.401Z,76.80
2018-04-13T14:44:52.828Z,76.80
2018-04-13T14:47:19.272Z,78.10
2018-04-13T14:49:46.502Z,78.70
2018-04-13T14:52:13.081Z,78.50
2018-04-13T14:54:39.632Z,75.90
2018-04-13T14:57:06.174Z,76.30
2018-04-13T14:59:32.638Z,75.10
2018-04-13T15:01:59.131Z,75.30
2018-04-13T15:04:25.705Z,76.60
2018-04-13T15:06:52.157Z,76.40
2018-04-13T15:09:19.408Z,74.40
2018-04-13T15:11:46.601Z,75.00
2018-04-13T15:14:13.060Z,75.00
2018-04-13T15:16:39.500Z,75.90
2018-04-13T15:19:06.714Z,74.50
2018-04-13T15:21:33.188Z,74.50
2018-04-13T15:23:59.620Z,74.90
2018-04-13T15:26:26.082Z,75.70
2018-04-13T15:28:53.294Z,76.00
2018-04-13T15:31:19.697Z,76.10
2018-04-13T15:33:46.147Z,75.20
2018-04-13T15:36:12.658Z,75.30
2018-04-13T15:38:39.106Z,75.10
2018-04-13T15:41:06.474Z,77.60
2018-04-13T15:43:32.905Z,77.60
2018-04-13T15:45:59.407Z,82.00
2018-04-13T15:48:25.894Z,78.50
2018-04-13T15:50:53.055Z,77.70
2018-04-13T15:53:20.359Z,77.80
2018-04-13T15:55:46.871Z,77.80
2018-04-13T15:58:13.400Z,78.70
2018-04-13T16:00:39.776Z,78.40
2018-04-13T16:03:06.352Z,76.60
2018-04-13T16:05:33.644Z,74.40
2018-04-13T16:08:00.149Z,74.40
2018-04-13T16:10:26.600Z,75.50
2018-04-13T16:12:53.081Z,72.70
2018-04-13T16:15:19.582Z,72.90
2018-04-13T16:17:46.029Z,69.70
2018-04-13T16:20:13.357Z,72.50
2018-04-13T16:22:39.775Z,72.60
2018-04-13T16:25:06.293Z,71.80
2018-04-13T16:27:32.731Z,70.60
2018-04-13T16:29:59.171Z,72.40
2018-04-13T16:32:25.538Z,72.50
2018-04-13T16:34:51.999Z,71.80
2018-04-13T16:37:18.412Z,69.30
2018-04-13T16:39:44.846Z,70.30
2018-04-13T16:42:11.273Z,72.00
2018-04-13T16:44:37.796Z,70.30
2018-04-13T16:47:04.314Z,69.60
2018-04-13T16:49:30.843Z,67.40
2018-04-13T16:51:57.294Z,70.30
2018-04-13T16:54:23.751Z,69.60
2018-04-13T16:56:50.916Z,71.20
2018-04-13T16:59:17.455Z,71.20
2018-04-13T17:01:44.041Z,71.20
2018-04-13T17:04:10.578Z,70.40
2018-04-13T17:06:37.082Z,67.80
2018-04-13T17:09:04.290Z,68.80
2018-04-13T17:11:30.833Z,66.30
2018-04-13T17:13:58.094Z,69.30
2018-04-13T17:16:25.294Z,69.20
2018-04-13T17:18:51.759Z,69.30
2018-04-13T17:21:18.917Z,67.70
2018-04-13T17:23:45.364Z,67.60
2018-04-13T17:26:11.832Z,66.30
2018-04-13T17:28:38.357Z,66.30
2018-04-13T17:31:05.588Z,65.10
2018-04-13T17:33:32.121Z,65.00
2018-04-13T17:35:58.584Z,64.20
2018-04-13T17:38:25.118Z,64.10
2018-04-13T17:40:51.577Z,64.00
2018-04-13T17:43:18.744Z,63.70
2018-04-13T17:45:45.201Z,63.60
2018-04-13T17:48:11.619Z,64.90
2018-04-13T17:50:38.136Z,64.50
2018-04-13T17:53:04.741Z,64.60
2018-04-13T17:55:31.506Z,65.90
2018-04-13T17:57:58.757Z,66.20
2018-04-13T18:00:25.278Z,66.20
2018-04-13T18:02:52.470Z,67.50
2018-04-13T18:05:18.990Z,66.70
2018-04-13T18:07:45.466Z,66.50
2018-04-13T18:10:11.872Z,68.00
2018-04-13T18:12:38.352Z,69.50
2018-04-13T18:15:04.858Z,69.70
2018-04-13T18:17:31.406Z,69.70
2018-04-13T18:19:57.953Z,69.70
2018-04-13T18:22:24.455Z,68.00
2018-04-13T18:24:50.890Z,68.40
2018-04-13T18:27:17.327Z,69.50
2018-04-13T18:29:43.765Z,72.50
2018-04-13T18:32:10.237Z,73.10
2018-04-13T18:34:37.516Z,77.60
2018-04-13T18:37:05.032Z,77.00
2018-04-13T18:39:31.533Z,78.00
2018-04-13T18:41:58.017Z,77.40
2018-04-13T18:44:24.477Z,76.90
2018-04-13T18:46:51.702Z,76.70
2018-04-13T18:49:18.967Z,77.20
2018-04-13T18:51:45.454Z,77.20
2018-04-13T18:54:11.930Z,77.40
2018-04-13T18:56:38.428Z,78.80
2018-04-13T18:59:04.853Z,79.10
2018-04-13T19:01:31.402Z,77.70
2018-04-13T19:03:57.963Z,77.70
2018-04-13T19:06:24.482Z,78.20
2018-04-13T19:08:51.755Z,80.10
2018-04-13T19:11:18.251Z,80.10
2018-04-13T19:13:45.468Z,82.80
2018-04-13T19:16:11.961Z,81.90
2018-04-13T19:18:38.442Z,81.30
2018-04-13T19:21:04.945Z,79.90
2018-04-13T19:23:31.497Z,78.40
2018-04-13T19:25:57.953Z,78.50
2018-04-13T19:28:24.519Z,77.50
2018-04-13T19:30:51.005Z,77.00
2018-04-13T19:33:17.480Z,76.40
2018-04-13T19:35:44.727Z,75.60
2018-04-13T19:38:12.032Z,74.00
2018-04-13T19:40:38.541Z,74.00
2018-04-13T19:43:05.052Z,74.00
2018-04-13T19:45:31.693Z,73.60
2018-04-13T19:47:58.133Z,74.00
2018-04-13T19:50:24.781Z,74.10
2018-04-13T19:52:51.558Z,73.80
2018-04-13T19:55:18.060Z,74.60
2018-04-13T19:57:44.638Z,73.90
2018-04-13T20:00:11.181Z,73.90
2018-04-13T20:02:37.796Z,73.80
2018-04-13T20:05:04.306Z,73.80
2018-04-13T20:07:30.839Z,73.80
2018-04-13T20:09:57.330Z,74.80
2018-04-13T20:12:23.796Z,75.20
2018-04-13T20:14:51.173Z,75.40
2018-04-13T20:17:17.691Z,75.50
2018-04-13T20:19:44.124Z,76.90
2018-04-13T20:22:10.637Z,78.90
2018-04-13T20:24:37.108Z,79.30
2018-04-13T20:27:03.597Z,78.60
2018-04-13T20:29:30.251Z,78.60
2018-04-13T20:31:56.685Z,77.80
2018-04-13T20:34:23.148Z,77.60
2018-04-13T20:36:49.714Z,77.40
2018-04-13T20:39:16.993Z,77.30
2018-04-13T20:41:43.469Z,77.30
2018-04-13T20:44:09.941Z,77.90
2018-04-13T20:46:36.407Z,79.30
2018-04-13T20:49:02.991Z,79.70
2018-04-13T20:51:29.504Z,78.40
2018-04-13T20:53:55.965Z,79.60
2018-04-13T20:56:23.162Z,78.00
2018-04-13T20:58:50.614Z,78.00
2018-04-13T21:01:17.206Z,78.80
2018-04-13T21:03:44.451Z,82.70
2018-04-13T21:06:10.984Z,82.60
2018-04-13T21:08:38.132Z,82.50
2018-04-13T21:11:04.580Z,82.40
2018-04-13T21:13:31.026Z,82.40
2018-04-13T21:15:57.519Z,82.40
2018-04-13T21:18:24.726Z,81.80
2018-04-13T21:20:51.228Z,81.00
2018-04-13T21:23:17.712Z,80.50
2018-04-13T21:25:44.229Z,82.00
2018-04-13T21:28:10.775Z,81.60
2018-04-13T21:30:37.281Z,82.20
2018-04-13T21:33:03.865Z,81.20
2018-04-13T21:35:30.250Z,81.60
2018-04-13T21:37:56.697Z,81.30
2018-04-13T21:40:23.145Z,80.10
2018-04-13T21:42:49.532Z,80.00
2018-04-13T21:45:15.944Z,80.30
2018-04-13T21:47:43.125Z,80.20
2018-04-13T21:50:09.523Z,80.20
2018-04-13T21:52:36.687Z,79.00
2018-04-13T21:55:03.207Z,79.00
2018-04-13T21:57:29.767Z,79.80
2018-04-13T21:59:56.190Z,80.20
2018-04-13T22:02:22.596Z,82.20
2018-04-13T22:04:49.839Z,82.00
2018-04-13T22:07:16.241Z,82.00
2018-04-13T22:09:42.760Z,81.50
2018-04-13T22:12:27.462Z,81.60
2018-04-13T22:14:53.924Z,81.10
2018-04-13T22:17:20.380Z,81.80
2018-04-13T22:19:46.901Z,82.00
2018-04-13T22:22:13.454Z,80.70
2018-04-13T22:24:39.869Z,80.00
2018-04-13T22:27:06.370Z,79.80
2018-04-13T22:29:33.500Z,79.40
2018-04-13T22:32:00.685Z,78.70
2018-04-13T22:34:27.114Z,78.80
2018-04-13T22:36:54.304Z,81.40
2018-04-13T22:39:20.748Z,81.40
2018-04-13T22:41:47.135Z,82.90
2018-04-13T22:44:13.609Z,81.40
2018-04-13T22:46:39.996Z,82.00
2018-04-13T22:49:06.505Z,81.50
2018-04-13T22:51:33.657Z,80.60
2018-04-13T22:54:00.093Z,80.70
2018-04-13T22:56:27.239Z,78.50
2018-04-13T22:58:54.427Z,78.90
2018-04-13T23:01:20.913Z,78.90
2018-04-13T23:03:47.332Z,78.20
2018-04-13T23:06:13.781Z,77.50
2018-04-13T23:08:40.956Z,78.50
2018-04-13T23:11:07.372Z,77.90
2018-04-13T23:13:34.533Z,77.60
2018-04-13T23:16:00.956Z,77.60
2018-04-13T23:18:28.108Z,78.00
2018-04-13T23:21:04.530Z,78.20
2018-04-13T23:23:30.997Z,78.40
2018-04-13T23:25:57.440Z,78.80
2018-04-13T23:28:23.816Z,78.80
2018-04-13T23:30:50.245Z,78.40
2018-04-13T23:33:16.644Z,78.30
2018-04-13T23:35:43.042Z,78.80
2018-04-13T23:38:10.233Z,79.30
2018-04-13T23:40:36.738Z,79.20
2018-04-13T23:43:03.301Z,79.70
2018-04-13T23:45:29.738Z,79.40
2018-04-13T23:47:56.181Z,79.40
2018-04-13T23:50:22.608Z,79.10
2018-04-13T23:52:49.039Z,79.30
2018-04-13T23:55:15.440Z,79.00
2018-04-13T23:57:41.891Z,78.90
